createdAt,value
2022-08-12T00:02:02.810Z,98842.38
2022-08-12T00:04:49.885Z,98847.81
2022-08-12T00:07:36.021Z,98846.78
2022-08-12T00:10:21.415Z,98842.38
2022-08-12T00:13:06.731Z,98847.91
2022-08-12T00:15:52.096Z,98850.81
2022-08-12T00:18:37.077Z,98849.09
2022-08-12T00:21:22.291Z,98855.03
2022-08-12T00:24:07.865Z,98852.78
2022-08-12T00:26:54.821Z,98847.44
2022-08-12T00:29:39.642Z,98854.25
2022-08-12T00:32:36.156Z,98853.47
2022-08-12T00:35:24.460Z,98853.81
2022-08-12T00:38:22.521Z,98853.19
2022-08-12T00:41:07.653Z,98857.56
2022-08-12T00:43:35.871Z,98854.41
2022-08-12T00:46:22.116Z,98857.53
2022-08-12T00:48:49.704Z,98857.38
2022-08-12T00:51:16.890Z,98865.34
2022-08-12T00:53:43.597Z,98866.56
2022-08-12T00:56:10.984Z,98872.19
2022-08-12T00:58:44.181Z,98872.50
2022-08-12T01:01:10.668Z,98870.13
2022-08-12T01:03:59.399Z,98866.03
2022-08-12T01:06:46.162Z,98873.50
2022-08-12T01:09:37.706Z,98870.50
2022-08-12T01:12:06.417Z,98883.22
2022-08-12T01:14:33.197Z,98878.38
2022-08-12T01:16:59.858Z,98881.25
2022-08-12T01:19:26.413Z,98876.00
2022-08-12T01:22:11.844Z,98873.88
2022-08-12T01:24:57.045Z,98873.88
2022-08-12T01:27:25.869Z,98876.84
2022-08-12T01:29:54.046Z,98880.47
2022-08-12T01:32:23.824Z,98876.31
2022-08-12T01:35:01.301Z,98877.53
2022-08-12T01:37:30.576Z,98884.91
2022-08-12T01:40:36.793Z,98886.03
2022-08-12T01:42:49.072Z,98872.81
2022-08-12T01:45:17.696Z,98879.84
2022-08-12T01:48:03.902Z,98872.47
2022-08-12T01:50:50.487Z,98874.03
2022-08-12T01:53:20.939Z,98866.78
2022-08-12T01:55:49.368Z,98860.75
2022-08-12T01:58:27.280Z,98861.34
2022-08-12T02:01:01.315Z,98865.63
2022-08-12T02:04:02.442Z,98864.06
2022-08-12T02:06:59.188Z,98865.28
2022-08-12T02:10:00.943Z,98865.66
2022-08-12T02:12:49.261Z,98868.31
2022-08-12T02:15:39.077Z,98867.88
2022-08-12T02:18:40.069Z,98866.53
2022-08-12T02:21:30.874Z,98860.53
2022-08-12T02:23:59.357Z,98863.34
2022-08-12T02:26:30.224Z,98857.91
2022-08-12T02:28:57.330Z,98870.50
2022-08-12T02:31:26.849Z,98864.50
2022-08-12T02:33:54.460Z,98860.00
2022-08-12T02:36:21.169Z,98857.09
2022-08-12T02:38:49.343Z,98866.78
2022-08-12T02:41:18.735Z,98868.38
2022-08-12T02:43:52.930Z,98863.16
2022-08-12T02:46:25.923Z,98867.91
2022-08-12T02:48:57.655Z,98864.56
2022-08-12T02:51:30.666Z,98864.47
2022-08-12T02:54:04.978Z,98858.59
2022-08-12T02:56:50.463Z,98854.41
2022-08-12T02:59:21.401Z,98858.00
2022-08-12T03:01:51.156Z,98855.13
2022-08-12T03:04:40.227Z,98855.22
2022-08-12T03:07:22.015Z,98857.88
2022-08-12T03:10:13.045Z,98865.63
2022-08-12T03:12:49.903Z,98866.19
2022-08-12T03:15:22.119Z,98860.97
2022-08-12T03:18:24.949Z,98865.50
2022-08-12T03:20:41.624Z,98858.50
2022-08-12T03:23:29.357Z,98863.63
2022-08-12T03:26:02.432Z,98858.97
2022-08-12T03:28:50.518Z,98861.28
2022-08-12T03:31:32.379Z,98859.44
2022-08-12T03:34:10.880Z,98851.22
2022-08-12T03:36:39.450Z,98847.25
2022-08-12T03:39:15.958Z,98849.69
2022-08-12T03:41:58.428Z,98852.31
2022-08-12T03:44:57.320Z,98848.00
2022-08-12T03:47:51.338Z,98856.91
2022-08-12T03:50:37.323Z,98858.97
2022-08-12T03:53:26.044Z,98857.16
2022-08-12T03:56:11.527Z,98855.38
2022-08-12T03:58:57.105Z,98862.66
2022-08-12T04:01:25.912Z,98859.53
2022-08-12T04:03:52.632Z,98867.75
2022-08-12T04:06:34.930Z,98861.81
2022-08-12T04:09:14.675Z,98872.38
2022-08-12T04:12:02.849Z,98877.41
2022-08-12T04:14:29.538Z,98878.34
2022-08-12T04:16:57.116Z,98876.38
2022-08-12T04:19:26.079Z,98868.38
2022-08-12T04:22:01.391Z,98879.06
2022-08-12T04:24:31.917Z,98864.84
2022-08-12T04:26:58.339Z,98869.09
2022-08-12T04:30:31.590Z,98868.94
2022-08-12T04:32:14.002Z,98872.28
2022-08-12T04:34:41.830Z,98867.63
2022-08-12T04:37:08.287Z,98877.66
2022-08-12T04:39:35.218Z,98873.88
2022-08-12T04:42:01.717Z,98878.06
2022-08-12T04:44:28.481Z,98875.09
2022-08-12T04:46:55.939Z,98881.72
2022-08-12T04:49:24.274Z,98878.19
2022-08-12T04:51:57.604Z,98876.97
2022-08-12T04:54:27.062Z,98880.81
2022-08-12T04:57:03.925Z,98881.25
2022-08-12T04:59:46.804Z,98878.28
2022-08-12T05:02:16.795Z,98880.25
2022-08-12T05:04:48.361Z,98882.25
2022-08-12T05:07:14.820Z,98877.78
2022-08-12T05:10:00.998Z,98884.09
2022-08-12T05:12:34.156Z,98887.47
2022-08-12T05:15:01.040Z,98887.97
2022-08-12T05:17:28.358Z,98886.53
2022-08-12T05:19:57.331Z,98884.16
2022-08-12T05:22:26.277Z,98886.00
2022-08-12T05:24:52.918Z,98886.16
2022-08-12T05:27:19.711Z,98880.59
2022-08-12T05:30:07.325Z,98881.63
2022-08-12T05:32:36.667Z,98887.94
2022-08-12T05:35:06.776Z,98885.25
2022-08-12T05:37:34.888Z,98890.13
2022-08-12T05:40:06.856Z,98889.22
2022-08-12T05:42:36.808Z,98898.44
2022-08-12T05:45:03.802Z,98906.56
2022-08-12T05:47:44.819Z,98905.94
2022-08-12T05:50:16.933Z,98905.06
2022-08-12T05:52:44.029Z,98913.91
2022-08-12T05:55:11.757Z,98916.84
2022-08-12T05:57:39.196Z,98914.56
2022-08-12T06:00:06.824Z,98907.50
2022-08-12T06:02:35.098Z,98910.19
2022-08-12T06:05:02.689Z,98915.09
2022-08-12T06:08:00.661Z,98907.75
2022-08-12T06:10:32.333Z,98906.31
2022-08-12T06:13:01.071Z,98908.53
2022-08-12T06:15:28.129Z,98913.31
2022-08-12T06:17:55.501Z,98919.34
2022-08-12T06:20:29.369Z,98916.78
2022-08-12T06:22:57.088Z,98918.44
2022-08-12T06:25:27.817Z,98909.34
2022-08-12T06:28:07.915Z,98908.03
2022-08-12T06:30:39.357Z,98897.41
2022-08-12T06:33:24.507Z,98903.09
2022-08-12T06:35:57.310Z,98897.50
2022-08-12T06:38:25.941Z,98897.69
2022-08-12T06:41:13.566Z,98896.91
2022-08-12T06:44:06.335Z,98894.59
2022-08-12T06:46:29.801Z,98894.34
2022-08-12T06:48:59.651Z,98886.34
2022-08-12T06:51:28.947Z,98890.38
2022-08-12T06:53:56.182Z,98888.78
2022-08-12T06:56:39.970Z,98899.78
2022-08-12T06:59:11.628Z,98895.25
2022-08-12T07:01:38.695Z,98889.66
2022-08-12T07:04:26.345Z,98888.69
2022-08-12T07:06:51.688Z,98890.31
2022-08-12T07:10:00.107Z,98893.94
2022-08-12T07:12:04.839Z,98889.31
2022-08-12T07:14:31.594Z,98887.13
2022-08-12T07:17:02.256Z,98887.75
2022-08-12T07:19:40.417Z,98890.63
2022-08-12T07:22:07.940Z,98887.88
2022-08-12T07:24:34.370Z,98894.41
2022-08-12T07:27:00.854Z,98896.28
2022-08-12T07:30:03.719Z,98894.47
2022-08-12T07:32:15.191Z,98900.88
2022-08-12T07:34:42.625Z,98901.81
2022-08-12T07:37:09.660Z,98886.69
2022-08-12T07:39:36.153Z,98883.94
2022-08-12T07:42:03.222Z,98877.16
2022-08-12T07:44:29.842Z,98877.69
2022-08-12T07:46:56.332Z,98882.91
2022-08-12T07:49:24.712Z,98872.47
2022-08-12T07:51:51.149Z,98883.03
2022-08-12T07:54:17.684Z,98872.16
2022-08-12T07:56:44.221Z,98878.38
2022-08-12T07:59:11.226Z,98876.03
2022-08-12T08:01:38.820Z,98871.97
2022-08-12T08:04:24.546Z,98873.38
2022-08-12T08:06:51.164Z,98879.88
2022-08-12T08:09:21.244Z,98876.03
2022-08-12T08:12:06.930Z,98876.94
2022-08-12T08:14:33.640Z,98874.06
2022-08-12T08:17:03.530Z,98878.19
2022-08-12T08:19:33.623Z,98871.22
2022-08-12T08:22:20.109Z,98875.25
2022-08-12T08:25:35.037Z,98879.88
2022-08-12T08:27:53.371Z,98868.81
2022-08-12T08:30:20.231Z,98881.59
2022-08-12T08:32:46.711Z,98881.03
2022-08-12T08:35:14.691Z,98883.63
2022-08-12T08:37:46.247Z,98879.44
2022-08-12T08:40:33.652Z,98874.34
2022-08-12T08:43:00.130Z,98878.31
2022-08-12T08:45:28.441Z,98884.75
2022-08-12T08:47:58.378Z,98881.38
2022-08-12T08:50:27.256Z,98876.94
2022-08-12T08:52:53.793Z,98872.50
2022-08-12T08:55:27.440Z,98886.31
2022-08-12T08:57:59.961Z,98882.75
2022-08-12T09:00:26.705Z,98885.56
2022-08-12T09:02:59.354Z,98876.91
2022-08-12T09:05:27.250Z,98877.81
2022-08-12T09:08:09.133Z,98872.31
2022-08-12T09:10:45.188Z,98879.59
2022-08-12T09:14:10.170Z,98861.41
2022-08-12T09:16:21.742Z,98869.94
2022-08-12T09:18:52.199Z,98873.78
2022-08-12T09:21:19.381Z,98865.25
2022-08-12T09:30:11.331Z,98852.06
2022-08-12T09:32:11.625Z,98849.16
2022-08-12T09:34:56.736Z,98854.81
2022-08-12T09:37:26.552Z,98849.72
2022-08-12T09:40:06.163Z,98854.19
2022-08-12T09:43:16.808Z,98854.47
2022-08-12T09:46:11.713Z,98856.78
2022-08-12T09:48:40.219Z,98853.63
2022-08-12T09:51:22.163Z,98848.25
2022-08-12T09:54:05.442Z,98847.34
2022-08-12T09:56:58.097Z,98848.78
2022-08-12T10:00:15.968Z,98833.88
2022-08-12T10:02:42.913Z,98837.84
2022-08-12T10:04:56.399Z,98830.13
2022-08-12T10:07:25.161Z,98833.13
2022-08-12T10:09:57.288Z,98823.41
2022-08-12T10:13:07.082Z,98830.47
2022-08-12T10:16:02.601Z,98823.25
2022-08-12T10:18:20.030Z,98816.22
2022-08-12T10:20:46.731Z,98815.69
2022-08-12T10:23:13.246Z,98815.63
2022-08-12T10:26:35.823Z,98815.94
2022-08-12T10:30:01.481Z,98805.44
2022-08-12T10:32:21.107Z,98798.34
2022-08-12T10:34:40.444Z,98811.81
2022-08-12T10:38:03.716Z,98789.13
2022-08-12T10:40:11.431Z,98789.28
2022-08-12T10:43:00.656Z,98795.97
2022-08-12T10:45:27.675Z,98785.75
2022-08-12T10:48:07.145Z,98787.72
2022-08-12T10:51:01.235Z,98781.09
2022-08-12T10:53:44.937Z,98777.78
2022-08-12T10:56:17.627Z,98778.47
2022-08-12T10:58:46.891Z,98767.44
2022-08-12T11:01:50.440Z,98765.50
2022-08-12T11:04:35.646Z,98768.69
2022-08-12T11:07:03.453Z,98762.41
2022-08-12T11:09:51.321Z,98777.47
2022-08-12T11:12:56.759Z,98775.97
2022-08-12T11:15:19.492Z,98766.03
2022-08-12T11:17:52.970Z,98763.97
2022-08-12T11:20:22.154Z,98761.28
2022-08-12T11:23:03.949Z,98762.75
2022-08-12T11:25:55.847Z,98752.69
2022-08-12T11:28:33.383Z,98766.66
2022-08-12T11:31:01.947Z,98757.31
2022-08-12T11:34:06.624Z,98761.19
2022-08-12T11:36:15.952Z,98755.09
2022-08-12T11:38:43.513Z,98750.50
2022-08-12T11:41:28.109Z,98747.50
2022-08-12T11:44:35.301Z,98744.13
2022-08-12T11:46:47.132Z,98742.41
2022-08-12T11:49:20.474Z,98722.63
2022-08-12T11:51:58.691Z,98731.91
2022-08-12T11:54:25.142Z,98735.13
2022-08-12T11:56:59.675Z,98727.63
2022-08-12T12:02:18.968Z,98720.50
2022-08-12T12:04:46.805Z,98703.22
2022-08-12T12:07:20.110Z,98701.78
2022-08-12T12:09:51.846Z,98721.44
2022-08-12T12:12:19.780Z,98719.06
2022-08-12T12:14:55.043Z,98722.69
2022-08-12T12:17:24.602Z,98709.66
2022-08-12T12:19:53.125Z,98707.97
2022-08-12T12:22:23.557Z,98704.72
2022-08-12T12:24:54.225Z,98704.03
2022-08-12T12:28:00.034Z,98696.72
2022-08-12T12:30:19.553Z,98706.91
2022-08-12T12:32:54.397Z,98695.44
2022-08-12T12:36:19.857Z,98700.91
2022-08-12T12:38:12.825Z,98697.25
2022-08-12T12:40:43.780Z,98687.94
2022-08-12T12:43:11.523Z,98695.13
2022-08-12T12:45:39.449Z,98695.28
2022-08-12T12:48:14.098Z,98683.53
2022-08-12T12:50:45.507Z,98677.13
2022-08-12T12:54:06.490Z,98674.09
2022-08-12T12:56:15.791Z,98679.50
2022-08-12T12:58:43.470Z,98682.72
2022-08-12T13:01:26.570Z,98682.91
2022-08-12T13:04:02.109Z,98688.50
2022-08-12T13:06:31.536Z,98683.19
2022-08-12T13:09:02.504Z,98679.69
2022-08-12T13:11:40.641Z,98676.19
2022-08-12T13:14:29.165Z,98670.47
2022-08-12T13:17:02.451Z,98666.66
2022-08-12T13:19:44.537Z,98676.50
2022-08-12T13:22:20.530Z,98674.81
2022-08-12T13:24:54.541Z,98664.66
2022-08-12T13:27:23.116Z,98670.75
2022-08-12T13:29:58.165Z,98678.41
2022-08-12T13:32:31.609Z,98677.47
2022-08-12T13:35:04.459Z,98672.16
2022-08-12T13:37:54.893Z,98670.91
2022-08-12T13:40:22.719Z,98664.78
2022-08-12T13:42:57.643Z,98661.38
2022-08-12T13:45:29.770Z,98666.38
2022-08-12T13:47:58.242Z,98661.53
2022-08-12T13:50:32.800Z,98661.84
2022-08-12T13:53:16.659Z,98659.50
2022-08-12T13:55:59.522Z,98659.22
2022-08-12T13:58:28.812Z,98666.25
2022-08-12T14:00:58.261Z,98651.56
2022-08-12T14:03:28.462Z,98659.38
2022-08-12T14:06:15.645Z,98662.28
2022-08-12T14:08:43.246Z,98650.88
2022-08-12T14:11:12.574Z,98646.91
2022-08-12T14:14:04.041Z,98659.69
2022-08-12T14:16:46.804Z,98655.88
2022-08-12T14:19:21.861Z,98649.19
2022-08-12T14:21:59.259Z,98655.31
2022-08-12T14:24:30.853Z,98650.84
2022-08-12T14:26:58.628Z,98645.19
2022-08-12T14:29:55.681Z,98641.22
2022-08-12T14:32:16.705Z,98645.75
2022-08-12T14:34:44.163Z,98646.13
2022-08-12T14:37:13.149Z,98651.38
2022-08-12T14:39:57.299Z,98646.88
2022-08-12T14:42:26.085Z,98639.78
2022-08-12T14:45:00.074Z,98641.78
2022-08-12T14:47:34.862Z,98648.91
2022-08-12T14:50:58.402Z,98640.13
2022-08-12T14:54:55.877Z,98642.84
2022-08-12T14:58:25.344Z,98631.06
2022-08-12T15:01:11.388Z,98636.03
2022-08-12T15:03:56.932Z,98634.59
2022-08-12T15:06:44.546Z,98635.03
2022-08-12T15:09:15.901Z,98636.06
2022-08-12T15:11:54.333Z,98634.50
2022-08-12T15:14:21.695Z,98629.34
2022-08-12T15:16:48.772Z,98638.19
2022-08-12T15:20:31.633Z,98630.50
2022-08-12T15:22:38.060Z,98628.66
2022-08-12T15:24:49.841Z,98630.78
2022-08-12T15:27:22.471Z,98622.41
2022-08-12T15:29:58.692Z,98635.78
2022-08-12T15:32:32.476Z,98630.94
2022-08-12T15:35:00.772Z,98630.09
2022-08-12T15:38:08.175Z,98628.94
2022-08-12T15:40:14.120Z,98623.69
2022-08-12T15:42:40.725Z,98633.66
2022-08-12T15:45:21.241Z,98635.50
2022-08-12T15:47:53.509Z,98627.41
2022-08-12T15:50:41.162Z,98624.53
2022-08-12T15:53:15.246Z,98635.34
2022-08-12T15:55:46.125Z,98644.16
2022-08-12T15:58:13.517Z,98630.41
2022-08-12T16:00:43.624Z,98642.47
2022-08-12T16:03:13.678Z,98633.59
2022-08-12T16:06:12.576Z,98642.13
2022-08-12T16:08:36.452Z,98643.03
2022-08-12T16:11:07.170Z,98642.97
2022-08-12T16:13:44.363Z,98636.97
2022-08-12T16:16:22.503Z,98639.56
2022-08-12T16:18:52.745Z,98629.91
2022-08-12T16:21:51.882Z,98633.31
2022-08-12T16:24:11.103Z,98641.53
2022-08-12T16:26:40.739Z,98635.88
2022-08-12T16:29:15.488Z,98637.72
2022-08-12T16:31:43.940Z,98644.75
2022-08-12T16:34:25.762Z,98641.94
2022-08-12T16:37:03.230Z,98633.56
2022-08-12T16:39:59.558Z,98632.56
2022-08-12T16:42:22.653Z,98636.66
2022-08-12T16:44:55.393Z,98621.28
2022-08-12T16:47:23.455Z,98620.72
2022-08-12T16:49:55.703Z,98631.19
2022-08-12T16:52:22.422Z,98625.75
2022-08-12T16:54:49.993Z,98627.50
2022-08-12T16:57:17.091Z,98622.91
2022-08-12T16:59:53.336Z,98629.81
2022-08-12T17:02:33.927Z,98622.84
2022-08-12T17:05:04.264Z,98624.34
2022-08-12T17:07:36.763Z,98624.78
2022-08-12T17:10:12.000Z,98621.66
2022-08-12T17:12:39.354Z,98615.69
2022-08-12T17:15:50.752Z,98620.13
2022-08-12T17:18:42.414Z,98621.69
2022-08-12T18:07:01.610Z,98615.28
2022-08-12T18:09:32.361Z,98614.81
2022-08-12T18:12:24.706Z,98618.00
2022-08-12T18:14:58.459Z,98614.34
2022-08-12T18:17:27.220Z,98618.53
2022-08-12T18:20:05.082Z,98618.53
2022-08-12T18:22:35.736Z,98613.66
2022-08-12T18:28:54.533Z,98628.38
2022-08-12T18:31:43.968Z,98633.03
2022-08-12T18:34:12.205Z,98635.28
2022-08-12T18:36:39.321Z,98639.53
2022-08-12T18:39:19.508Z,98645.78
2022-08-12T18:41:47.036Z,98650.81
2022-08-12T18:44:13.823Z,98639.66
2022-08-12T18:46:46.719Z,98637.44
2022-08-12T18:49:31.840Z,98631.22
2022-08-12T18:52:04.693Z,98634.03
2022-08-12T18:54:35.045Z,98634.41
2022-08-12T18:57:07.095Z,98637.09
2022-08-12T19:00:00.087Z,98633.03
2022-08-12T19:02:32.048Z,98636.06
2022-08-12T19:04:58.983Z,98645.19
2022-08-12T19:07:29.666Z,98635.38
2022-08-12T19:10:13.787Z,98636.13
2022-08-12T19:13:00.567Z,98639.03
2022-08-12T19:15:29.912Z,98642.44
2022-08-12T19:18:01.146Z,98643.88
2022-08-12T19:20:30.046Z,98637.75
2022-08-12T19:23:02.219Z,98637.50
2022-08-12T19:26:00.673Z,98633.41
2022-08-12T19:28:30.194Z,98640.16
2022-08-12T19:31:56.747Z,98633.53
2022-08-12T19:37:20.376Z,98640.00
2022-08-12T19:40:08.694Z,98645.38
2022-08-12T19:42:42.747Z,98640.25
2022-08-12T19:45:13.959Z,98650.31
2022-08-12T19:47:43.445Z,98646.06
2022-08-12T19:50:11.105Z,98643.38
2022-08-12T19:52:40.990Z,98644.09
2022-08-12T19:55:11.644Z,98648.78
2022-08-12T20:03:59.300Z,98649.22
2022-08-12T20:06:27.723Z,98652.44
2022-08-12T20:08:57.222Z,98655.13
2022-08-12T20:12:13.790Z,98658.25
2022-08-12T20:14:18.410Z,98654.59
2022-08-12T20:16:57.477Z,98651.91
2022-08-12T20:20:05.687Z,98646.25
2022-08-12T20:22:24.837Z,98648.44
2022-08-12T20:25:02.010Z,98646.94
2022-08-12T20:28:04.060Z,98645.47
2022-08-12T20:30:20.762Z,98643.28
2022-08-12T20:33:18.336Z,98653.94
2022-08-12T20:36:06.579Z,98646.94
2022-08-12T20:38:32.921Z,98656.19
2022-08-12T20:41:00.024Z,98649.22
2022-08-12T20:43:28.067Z,98644.88
2022-08-12T20:45:58.379Z,98648.88
2022-08-12T20:48:26.206Z,98650.38
2022-08-12T20:50:56.296Z,98655.50
2022-08-12T20:53:33.135Z,98652.19
2022-08-12T20:56:30.911Z,98657.63
2022-08-12T20:59:01.084Z,98655.06
2022-08-12T21:01:36.592Z,98660.22
2022-08-12T21:04:31.897Z,98654.84
2022-08-12T21:07:08.594Z,98655.75
2022-08-12T21:09:40.677Z,98666.47
2022-08-12T21:12:28.001Z,98665.03
2022-08-12T21:15:17.590Z,98663.25
2022-08-12T21:18:07.896Z,98662.09
2022-08-12T21:20:35.936Z,98663.94
2022-08-12T21:23:05.714Z,98657.06
2022-08-12T21:25:35.820Z,98664.31
2022-08-12T21:28:11.364Z,98668.44
2022-08-12T21:30:54.831Z,98668.69
2022-08-12T21:33:30.790Z,98669.75
2022-08-12T21:35:58.194Z,98670.31
2022-08-12T21:38:34.399Z,98673.16
2022-08-12T21:41:07.042Z,98670.28
2022-08-12T21:43:45.081Z,98668.81
2022-08-12T21:46:34.660Z,98669.22
2022-08-12T21:49:04.945Z,98677.69
2022-08-12T21:51:50.019Z,98668.56
2022-08-12T21:54:23.088Z,98679.78
2022-08-12T21:56:55.830Z,98668.91
2022-08-12T21:59:22.768Z,98666.69
2022-08-12T22:01:49.735Z,98671.59
2022-08-12T22:04:36.256Z,98670.06
2022-08-12T22:07:03.157Z,98680.13
2022-08-12T22:09:43.029Z,98684.50
2022-08-12T22:12:28.545Z,98674.19
2022-08-12T22:14:55.041Z,98682.69
2022-08-12T22:17:21.480Z,98691.47
2022-08-12T22:19:50.530Z,98687.25
2022-08-12T22:22:17.093Z,98684.75
2022-08-12T22:24:47.545Z,98690.50
2022-08-12T22:27:31.637Z,98685.34
2022-08-12T22:30:19.788Z,98686.28
2022-08-12T22:32:51.559Z,98686.94
2022-08-12T22:35:55.569Z,98693.06
2022-08-12T22:38:23.932Z,98687.03
2022-08-12T22:40:57.425Z,98684.28
2022-08-12T22:44:00.656Z,98680.84
2022-08-12T22:46:52.986Z,98678.94
2022-08-12T22:49:36.899Z,98684.44
2022-08-12T22:52:13.398Z,98684.44
2022-08-12T22:54:59.930Z,98674.13
2022-08-12T22:57:49.121Z,98670.41
2022-08-12T23:00:27.299Z,98667.69
2022-08-12T23:03:02.751Z,98667.53
2022-08-12T23:05:57.700Z,98664.66
2022-08-12T23:08:17.906Z,98665.56
2022-08-12T23:10:45.143Z,98665.41
2022-08-12T23:13:43.374Z,98669.16
2022-08-12T23:16:10.206Z,98663.84
2022-08-12T23:18:54.177Z,98659.53
2022-08-12T23:21:24.393Z,98663.06
2022-08-12T23:24:08.979Z,98650.88
2022-08-12T23:26:55.182Z,98645.09
2022-08-12T23:29:25.761Z,98639.59
2022-08-12T23:32:03.581Z,98655.16
2022-08-12T23:34:34.419Z,98650.94
2022-08-12T23:37:00.882Z,98649.25
2022-08-12T23:40:13.345Z,98640.72
2022-08-12T23:42:16.561Z,98648.31
2022-08-12T23:44:43.979Z,98653.72
2022-08-12T23:47:11.610Z,98651.50
2022-08-12T23:49:58.021Z,98651.03
2022-08-12T23:52:34.081Z,98648.75
2022-08-12T23:55:23.554Z,98654.00
2022-08-12T23:57:51.111Z,98647.16
